sensor_id;sensor_type;location;lat;lon;timestamp;P1;durP1;ratioP1;P2;durP2;ratioP2
5052;SDS011;2545;50.892;5.740;2023-07-31T00:02:15;8.77;;;4.43;;
5052;SDS011;2545;50.892;5.740;2023-07-31T00:04:40;13.43;;;5.60;;
5052;SDS011;2545;50.892;5.740;2023-07-31T00:07:06;21.80;;;5.00;;
5052;SDS011;2545;50.892;5.740;2023-07-31T00:09:32;13.53;;;4.73;;
5052;SDS011;2545;50.892;5.740;2023-07-31T00:11:57;16.60;;;5.20;;
5052;SDS011;2545;50.892;5.740;2023-07-31T00:14:23;18.60;;;5.10;;
5052;SDS011;2545;50.892;5.740;2023-07-31T00:16:48;15.50;;;5.00;;
5052;SDS011;2545;50.892;5.740;2023-07-31T00:19:14;19.40;;;4.50;;
5052;SDS011;2545;50.892;5.740;2023-07-31T00:21:39;13.77;;;4.90;;
5052;SDS011;2545;50.892;5.740;2023-07-31T00:24:04;14.93;;;4.93;;
5052;SDS011;2545;50.892;5.740;2023-07-31T00:26:30;15.63;;;5.10;;
5052;SDS011;2545;50.892;5.740;2023-07-31T00:28:55;13.03;;;4.33;;
5052;SDS011;2545;50.892;5.740;2023-07-31T00:31:20;14.17;;;3.87;;
5052;SDS011;2545;50.892;5.740;2023-07-31T00:33:46;12.33;;;5.57;;
5052;SDS011;2545;50.892;5.740;2023-07-31T00:36:11;15.73;;;4.27;;
5052;SDS011;2545;50.892;5.740;2023-07-31T00:38:36;18.13;;;4.33;;
5052;SDS011;2545;50.892;5.740;2023-07-31T00:41:02;14.40;;;5.10;;
5052;SDS011;2545;50.892;5.740;2023-07-31T00:43:27;12.67;;;4.40;;
5052;SDS011;2545;50.892;5.740;2023-07-31T00:45:53;14.03;;;4.73;;
5052;SDS011;2545;50.892;5.740;2023-07-31T00:48:18;15.17;;;6.23;;
5052;SDS011;2545;50.892;5.740;2023-07-31T00:50:43;12.77;;;5.43;;
5052;SDS011;2545;50.892;5.740;2023-07-31T00:53:09;9.03;;;4.63;;
5052;SDS011;2545;50.892;5.740;2023-07-31T00:55:34;8.47;;;4.23;;
5052;SDS011;2545;50.892;5.740;2023-07-31T00:58:00;12.73;;;4.60;;
5052;SDS011;2545;50.892;5.740;2023-07-31T01:00:25;13.13;;;5.33;;
5052;SDS011;2545;50.892;5.740;2023-07-31T01:02:51;15.27;;;4.87;;
5052;SDS011;2545;50.892;5.740;2023-07-31T01:05:18;17.17;;;4.80;;
5052;SDS011;2545;50.892;5.740;2023-07-31T01:07:56;18.63;;;4.87;;
5052;SDS011;2545;50.892;5.740;2023-07-31T01:10:31;13.47;;;5.50;;
5052;SDS011;2545;50.892;5.740;2023-07-31T01:13:06;10.10;;;5.00;;
5052;SDS011;2545;50.892;5.740;2023-07-31T01:15:33;14.53;;;4.93;;
5052;SDS011;2545;50.892;5.740;2023-07-31T01:17:58;10.50;;;5.37;;
5052;SDS011;2545;50.892;5.740;2023-07-31T01:20:24;11.93;;;5.03;;
5052;SDS011;2545;50.892;5.740;2023-07-31T01:28:40;13.67;;;5.00;;
5052;SDS011;2545;50.892;5.740;2023-07-31T01:31:13;17.13;;;5.47;;
5052;SDS011;2545;50.892;5.740;2023-07-31T01:33:43;12.57;;;4.67;;
5052;SDS011;2545;50.892;5.740;2023-07-31T01:36:09;10.13;;;5.57;;
5052;SDS011;2545;50.892;5.740;2023-07-31T01:38:35;12.07;;;5.37;;
5052;SDS011;2545;50.892;5.740;2023-07-31T01:41:01;14.00;;;5.20;;
5052;SDS011;2545;50.892;5.740;2023-07-31T01:43:26;15.30;;;4.87;;
5052;SDS011;2545;50.892;5.740;2023-07-31T01:45:51;16.20;;;4.80;;
5052;SDS011;2545;50.892;5.740;2023-07-31T01:48:16;13.10;;;4.90;;
5052;SDS011;2545;50.892;5.740;2023-07-31T01:50:42;18.77;;;6.00;;
5052;SDS011;2545;50.892;5.740;2023-07-31T01:53:07;20.57;;;5.87;;
5052;SDS011;2545;50.892;5.740;2023-07-31T01:55:33;13.93;;;5.27;;
5052;SDS011;2545;50.892;5.740;2023-07-31T01:57:58;22.63;;;6.00;;
5052;SDS011;2545;50.892;5.740;2023-07-31T02:00:23;10.47;;;4.90;;
5052;SDS011;2545;50.892;5.740;2023-07-31T02:02:48;10.57;;;5.50;;
5052;SDS011;2545;50.892;5.740;2023-07-31T02:05:14;22.30;;;6.07;;
5052;SDS011;2545;50.892;5.740;2023-07-31T02:07:39;10.07;;;5.53;;
5052;SDS011;2545;50.892;5.740;2023-07-31T02:10:05;12.93;;;4.80;;
5052;SDS011;2545;50.892;5.740;2023-07-31T02:12:30;8.47;;;4.73;;
5052;SDS011;2545;50.892;5.740;2023-07-31T02:14:57;17.57;;;5.10;;
5052;SDS011;2545;50.892;5.740;2023-07-31T02:17:22;12.63;;;5.90;;
5052;SDS011;2545;50.892;5.740;2023-07-31T02:19:48;11.30;;;5.10;;
5052;SDS011;2545;50.892;5.740;2023-07-31T02:22:13;16.67;;;5.33;;
5052;SDS011;2545;50.892;5.740;2023-07-31T02:24:38;8.60;;;4.70;;
5052;SDS011;2545;50.892;5.740;2023-07-31T02:27:04;12.33;;;5.73;;
5052;SDS011;2545;50.892;5.740;2023-07-31T02:29:29;15.60;;;5.13;;
5052;SDS011;2545;50.892;5.740;2023-07-31T02:31:55;21.23;;;6.40;;
5052;SDS011;2545;50.892;5.740;2023-07-31T02:34:20;15.80;;;5.37;;
5052;SDS011;2545;50.892;5.740;2023-07-31T02:36:45;11.67;;;5.03;;
5052;SDS011;2545;50.892;5.740;2023-07-31T02:39:11;10.53;;;4.80;;
5052;SDS011;2545;50.892;5.740;2023-07-31T02:41:36;10.97;;;5.77;;
5052;SDS011;2545;50.892;5.740;2023-07-31T02:44:01;18.90;;;6.20;;
5052;SDS011;2545;50.892;5.740;2023-07-31T02:46:27;11.47;;;4.90;;
5052;SDS011;2545;50.892;5.740;2023-07-31T02:48:52;12.67;;;5.47;;
5052;SDS011;2545;50.892;5.740;2023-07-31T02:51:17;12.83;;;5.23;;
5052;SDS011;2545;50.892;5.740;2023-07-31T02:53:43;14.23;;;6.00;;
5052;SDS011;2545;50.892;5.740;2023-07-31T02:56:08;17.90;;;5.57;;
5052;SDS011;2545;50.892;5.740;2023-07-31T02:58:34;8.83;;;4.80;;
5052;SDS011;2545;50.892;5.740;2023-07-31T03:00:59;13.00;;;5.53;;
5052;SDS011;2545;50.892;5.740;2023-07-31T03:03:24;17.17;;;5.77;;
5052;SDS011;2545;50.892;5.740;2023-07-31T03:05:50;10.63;;;5.87;;
5052;SDS011;2545;50.892;5.740;2023-07-31T03:08:15;20.57;;;6.53;;
5052;SDS011;2545;50.892;5.740;2023-07-31T03:10:41;11.00;;;6.00;;
5052;SDS011;2545;50.892;5.740;2023-07-31T03:13:06;6.73;;;4.87;;
5052;SDS011;2545;50.892;5.740;2023-07-31T03:15:32;11.23;;;5.43;;
5052;SDS011;2545;50.892;5.740;2023-07-31T03:17:57;11.13;;;5.13;;
5052;SDS011;2545;50.892;5.740;2023-07-31T03:20:23;20.43;;;5.50;;
5052;SDS011;2545;50.892;5.740;2023-07-31T03:22:48;13.93;;;6.40;;
5052;SDS011;2545;50.892;5.740;2023-07-31T03:25:13;13.40;;;5.57;;
5052;SDS011;2545;50.892;5.740;2023-07-31T03:27:39;22.40;;;6.87;;
5052;SDS011;2545;50.892;5.740;2023-07-31T03:30:05;6.37;;;4.93;;
5052;SDS011;2545;50.892;5.740;2023-07-31T03:32:30;16.80;;;5.50;;
5052;SDS011;2545;50.892;5.740;2023-07-31T03:34:57;9.67;;;4.80;;
5052;SDS011;2545;50.892;5.740;2023-07-31T03:37:22;15.43;;;5.50;;
5052;SDS011;2545;50.892;5.740;2023-07-31T03:39:47;19.73;;;5.87;;
5052;SDS011;2545;50.892;5.740;2023-07-31T03:42:13;9.73;;;5.47;;
5052;SDS011;2545;50.892;5.740;2023-07-31T03:44:38;12.33;;;6.10;;
5052;SDS011;2545;50.892;5.740;2023-07-31T03:47:04;17.47;;;5.57;;
5052;SDS011;2545;50.892;5.740;2023-07-31T03:49:30;12.27;;;5.03;;
5052;SDS011;2545;50.892;5.740;2023-07-31T03:51:55;9.60;;;5.13;;
5052;SDS011;2545;50.892;5.740;2023-07-31T03:54:21;10.67;;;5.13;;
5052;SDS011;2545;50.892;5.740;2023-07-31T03:56:46;10.67;;;4.60;;
5052;SDS011;2545;50.892;5.740;2023-07-31T03:59:11;8.83;;;4.20;;
5052;SDS011;2545;50.892;5.740;2023-07-31T04:01:37;11.73;;;5.07;;
5052;SDS011;2545;50.892;5.740;2023-07-31T04:04:02;14.03;;;5.23;;
5052;SDS011;2545;50.892;5.740;2023-07-31T04:06:28;9.00;;;4.80;;
5052;SDS011;2545;50.892;5.740;2023-07-31T04:08:53;7.33;;;4.70;;
5052;SDS011;2545;50.892;5.740;2023-07-31T04:11:18;15.53;;;5.30;;
5052;SDS011;2545;50.892;5.740;2023-07-31T04:13:44;13.77;;;4.80;;
5052;SDS011;2545;50.892;5.740;2023-07-31T04:16:09;9.40;;;4.87;;
5052;SDS011;2545;50.892;5.740;2023-07-31T04:18:35;7.10;;;4.33;;
5052;SDS011;2545;50.892;5.740;2023-07-31T04:21:00;9.77;;;4.60;;
5052;SDS011;2545;50.892;5.740;2023-07-31T04:23:26;12.03;;;4.40;;
5052;SDS011;2545;50.892;5.740;2023-07-31T04:25:51;7.27;;;4.60;;
5052;SDS011;2545;50.892;5.740;2023-07-31T04:28:17;7.60;;;4.27;;
5052;SDS011;2545;50.892;5.740;2023-07-31T04:30:42;7.37;;;4.67;;
5052;SDS011;2545;50.892;5.740;2023-07-31T04:33:07;8.83;;;4.50;;
5052;SDS011;2545;50.892;5.740;2023-07-31T04:35:33;8.97;;;4.63;;
5052;SDS011;2545;50.892;5.740;2023-07-31T04:37:58;8.60;;;4.87;;
5052;SDS011;2545;50.892;5.740;2023-07-31T04:40:24;7.90;;;4.23;;
5052;SDS011;2545;50.892;5.740;2023-07-31T04:42:49;15.20;;;5.40;;
5052;SDS011;2545;50.892;5.740;2023-07-31T04:45:15;11.17;;;4.57;;
5052;SDS011;2545;50.892;5.740;2023-07-31T04:47:40;5.57;;;4.00;;
5052;SDS011;2545;50.892;5.740;2023-07-31T04:50:06;9.77;;;4.53;;
5052;SDS011;2545;50.892;5.740;2023-07-31T04:52:31;7.10;;;3.93;;
5052;SDS011;2545;50.892;5.740;2023-07-31T04:54:57;11.07;;;4.30;;
5052;SDS011;2545;50.892;5.740;2023-07-31T04:57:22;11.43;;;4.50;;
5052;SDS011;2545;50.892;5.740;2023-07-31T04:59:47;10.33;;;4.33;;
5052;SDS011;2545;50.892;5.740;2023-07-31T05:02:13;10.40;;;4.53;;
5052;SDS011;2545;50.892;5.740;2023-07-31T05:04:38;8.57;;;4.33;;
5052;SDS011;2545;50.892;5.740;2023-07-31T05:07:04;7.70;;;4.23;;
5052;SDS011;2545;50.892;5.740;2023-07-31T05:09:29;13.33;;;5.90;;
5052;SDS011;2545;50.892;5.740;2023-07-31T05:11:55;7.80;;;4.47;;
5052;SDS011;2545;50.892;5.740;2023-07-31T05:14:20;12.57;;;4.70;;
5052;SDS011;2545;50.892;5.740;2023-07-31T05:16:45;15.27;;;5.17;;
5052;SDS011;2545;50.892;5.740;2023-07-31T05:19:11;12.20;;;5.17;;
5052;SDS011;2545;50.892;5.740;2023-07-31T05:21:36;9.43;;;4.60;;
5052;SDS011;2545;50.892;5.740;2023-07-31T05:24:02;10.60;;;4.23;;
5052;SDS011;2545;50.892;5.740;2023-07-31T05:26:28;10.17;;;5.07;;
5052;SDS011;2545;50.892;5.740;2023-07-31T05:28:53;8.50;;;4.30;;
5052;SDS011;2545;50.892;5.740;2023-07-31T05:31:18;7.83;;;4.93;;
5052;SDS011;2545;50.892;5.740;2023-07-31T05:33:44;20.70;;;5.33;;
5052;SDS011;2545;50.892;5.740;2023-07-31T05:36:09;12.30;;;5.50;;
5052;SDS011;2545;50.892;5.740;2023-07-31T05:38:34;18.60;;;6.27;;
5052;SDS011;2545;50.892;5.740;2023-07-31T05:41:00;11.27;;;4.40;;
5052;SDS011;2545;50.892;5.740;2023-07-31T05:43:25;8.17;;;4.23;;
5052;SDS011;2545;50.892;5.740;2023-07-31T05:45:50;11.33;;;5.00;;
5052;SDS011;2545;50.892;5.740;2023-07-31T05:48:16;9.60;;;4.80;;
5052;SDS011;2545;50.892;5.740;2023-07-31T05:50:42;13.07;;;5.10;;
5052;SDS011;2545;50.892;5.740;2023-07-31T05:53:08;10.63;;;4.23;;
5052;SDS011;2545;50.892;5.740;2023-07-31T05:55:35;8.00;;;5.13;;
5052;SDS011;2545;50.892;5.740;2023-07-31T05:58:01;13.00;;;4.53;;
5052;SDS011;2545;50.892;5.740;2023-07-31T06:00:26;10.87;;;4.27;;
5052;SDS011;2545;50.892;5.740;2023-07-31T06:02:52;11.00;;;4.60;;
5052;SDS011;2545;50.892;5.740;2023-07-31T06:05:18;8.43;;;4.17;;
5052;SDS011;2545;50.892;5.740;2023-07-31T06:07:43;8.40;;;3.87;;
5052;SDS011;2545;50.892;5.740;2023-07-31T06:10:09;7.30;;;4.33;;
5052;SDS011;2545;50.892;5.740;2023-07-31T06:12:34;9.97;;;4.97;;
5052;SDS011;2545;50.892;5.740;2023-07-31T06:15:01;20.33;;;4.23;;
5052;SDS011;2545;50.892;5.740;2023-07-31T06:17:28;11.13;;;4.40;;
5052;SDS011;2545;50.892;5.740;2023-07-31T06:19:54;15.23;;;5.00;;
5052;SDS011;2545;50.892;5.740;2023-07-31T06:22:19;9.20;;;5.50;;
5052;SDS011;2545;50.892;5.740;2023-07-31T06:24:44;15.10;;;4.77;;
5052;SDS011;2545;50.892;5.740;2023-07-31T06:27:10;7.40;;;4.43;;
5052;SDS011;2545;50.892;5.740;2023-07-31T06:29:36;5.53;;;3.73;;
5052;SDS011;2545;50.892;5.740;2023-07-31T06:32:01;7.17;;;4.20;;
5052;SDS011;2545;50.892;5.740;2023-07-31T06:34:27;13.93;;;4.43;;
5052;SDS011;2545;50.892;5.740;2023-07-31T06:36:52;12.77;;;3.73;;
5052;SDS011;2545;50.892;5.740;2023-07-31T06:39:17;12.27;;;5.20;;
5052;SDS011;2545;50.892;5.740;2023-07-31T06:41:43;12.63;;;5.47;;
5052;SDS011;2545;50.892;5.740;2023-07-31T06:44:09;9.70;;;4.40;;
5052;SDS011;2545;50.892;5.740;2023-07-31T06:46:35;12.70;;;4.70;;
5052;SDS011;2545;50.892;5.740;2023-07-31T06:49:00;9.13;;;4.60;;
5052;SDS011;2545;50.892;5.740;2023-07-31T06:51:25;15.23;;;5.20;;
5052;SDS011;2545;50.892;5.740;2023-07-31T06:53:51;10.00;;;4.10;;
5052;SDS011;2545;50.892;5.740;2023-07-31T06:56:16;8.77;;;4.50;;
5052;SDS011;2545;50.892;5.740;2023-07-31T06:58:42;9.00;;;4.37;;
5052;SDS011;2545;50.892;5.740;2023-07-31T07:01:07;10.57;;;5.07;;
5052;SDS011;2545;50.892;5.740;2023-07-31T07:03:33;12.37;;;5.50;;
5052;SDS011;2545;50.892;5.740;2023-07-31T07:05:58;17.60;;;7.93;;
5052;SDS011;2545;50.892;5.740;2023-07-31T07:08:24;26.13;;;7.57;;
5052;SDS011;2545;50.892;5.740;2023-07-31T07:10:50;15.30;;;6.97;;
5052;SDS011;2545;50.892;5.740;2023-07-31T07:13:15;15.07;;;7.53;;
5052;SDS011;2545;50.892;5.740;2023-07-31T07:15:41;23.47;;;7.30;;
5052;SDS011;2545;50.892;5.740;2023-07-31T07:18:06;12.67;;;7.63;;
5052;SDS011;2545;50.892;5.740;2023-07-31T07:20:32;23.73;;;6.63;;
5052;SDS011;2545;50.892;5.740;2023-07-31T07:22:57;15.90;;;6.07;;
5052;SDS011;2545;50.892;5.740;2023-07-31T07:25:22;16.63;;;5.57;;
5052;SDS011;2545;50.892;5.740;2023-07-31T07:27:48;11.20;;;6.63;;
5052;SDS011;2545;50.892;5.740;2023-07-31T07:30:13;17.80;;;6.30;;
5052;SDS011;2545;50.892;5.740;2023-07-31T07:32:39;10.97;;;6.40;;
5052;SDS011;2545;50.892;5.740;2023-07-31T07:35:05;14.23;;;7.10;;
5052;SDS011;2545;50.892;5.740;2023-07-31T07:37:31;15.60;;;6.50;;
5052;SDS011;2545;50.892;5.740;2023-07-31T07:39:56;10.40;;;6.00;;
5052;SDS011;2545;50.892;5.740;2023-07-31T07:42:22;15.80;;;5.67;;
5052;SDS011;2545;50.892;5.740;2023-07-31T07:44:47;11.50;;;6.73;;
5052;SDS011;2545;50.892;5.740;2023-07-31T07:47:13;14.73;;;6.17;;
5052;SDS011;2545;50.892;5.740;2023-07-31T07:49:38;10.43;;;6.00;;
5052;SDS011;2545;50.892;5.740;2023-07-31T07:52:04;13.50;;;6.73;;
5052;SDS011;2545;50.892;5.740;2023-07-31T07:54:30;13.57;;;5.00;;
5052;SDS011;2545;50.892;5.740;2023-07-31T07:56:55;10.00;;;5.40;;
5052;SDS011;2545;50.892;5.740;2023-07-31T07:59:21;10.67;;;6.20;;
5052;SDS011;2545;50.892;5.740;2023-07-31T08:01:46;14.90;;;6.23;;
5052;SDS011;2545;50.892;5.740;2023-07-31T08:04:11;10.23;;;5.90;;
5052;SDS011;2545;50.892;5.740;2023-07-31T08:06:37;16.37;;;5.43;;
5052;SDS011;2545;50.892;5.740;2023-07-31T08:09:02;9.00;;;5.20;;
5052;SDS011;2545;50.892;5.740;2023-07-31T08:11:31;7.67;;;4.57;;
5052;SDS011;2545;50.892;5.740;2023-07-31T08:13:57;7.77;;;4.70;;
5052;SDS011;2545;50.892;5.740;2023-07-31T08:16:22;10.80;;;5.30;;
5052;SDS011;2545;50.892;5.740;2023-07-31T08:18:48;12.80;;;5.73;;
5052;SDS011;2545;50.892;5.740;2023-07-31T08:21:13;8.10;;;5.53;;
5052;SDS011;2545;50.892;5.740;2023-07-31T08:23:40;12.43;;;5.27;;
5052;SDS011;2545;50.892;5.740;2023-07-31T08:26:05;8.63;;;4.03;;
5052;SDS011;2545;50.892;5.740;2023-07-31T08:28:30;8.60;;;4.40;;
5052;SDS011;2545;50.892;5.740;2023-07-31T08:30:56;9.90;;;4.80;;
5052;SDS011;2545;50.892;5.740;2023-07-31T08:33:21;10.57;;;4.40;;
5052;SDS011;2545;50.892;5.740;2023-07-31T08:35:46;7.63;;;4.47;;
5052;SDS011;2545;50.892;5.740;2023-07-31T08:38:12;6.70;;;4.43;;
5052;SDS011;2545;50.892;5.740;2023-07-31T08:40:37;8.73;;;4.50;;
5052;SDS011;2545;50.892;5.740;2023-07-31T08:43:03;9.30;;;4.77;;
5052;SDS011;2545;50.892;5.740;2023-07-31T08:45:28;8.50;;;3.47;;
5052;SDS011;2545;50.892;5.740;2023-07-31T08:47:55;11.10;;;4.93;;
5052;SDS011;2545;50.892;5.740;2023-07-31T08:50:22;9.97;;;4.40;;
5052;SDS011;2545;50.892;5.740;2023-07-31T08:52:48;10.00;;;5.10;;
5052;SDS011;2545;50.892;5.740;2023-07-31T08:55:15;7.37;;;4.17;;
5052;SDS011;2545;50.892;5.740;2023-07-31T08:57:41;6.30;;;4.73;;
5052;SDS011;2545;50.892;5.740;2023-07-31T09:00:08;10.03;;;4.40;;
5052;SDS011;2545;50.892;5.740;2023-07-31T09:02:38;9.83;;;4.90;;
5052;SDS011;2545;50.892;5.740;2023-07-31T09:05:10;13.13;;;4.40;;
5052;SDS011;2545;50.892;5.740;2023-07-31T09:07:36;9.20;;;4.90;;
5052;SDS011;2545;50.892;5.740;2023-07-31T09:10:03;8.50;;;4.90;;
5052;SDS011;2545;50.892;5.740;2023-07-31T09:12:29;22.50;;;4.90;;
5052;SDS011;2545;50.892;5.740;2023-07-31T09:14:54;11.33;;;4.20;;
5052;SDS011;2545;50.892;5.740;2023-07-31T09:17:30;10.83;;;4.93;;
5052;SDS011;2545;50.892;5.740;2023-07-31T09:20:05;10.03;;;5.57;;
5052;SDS011;2545;50.892;5.740;2023-07-31T09:22:39;8.07;;;4.83;;
5052;SDS011;2545;50.892;5.740;2023-07-31T09:28:03;12.50;;;5.50;;
5052;SDS011;2545;50.892;5.740;2023-07-31T09:30:30;10.10;;;5.67;;
5052;SDS011;2545;50.892;5.740;2023-07-31T09:33:05;9.60;;;4.83;;
5052;SDS011;2545;50.892;5.740;2023-07-31T09:35:33;13.73;;;5.00;;
5052;SDS011;2545;50.892;5.740;2023-07-31T09:38:00;10.00;;;4.00;;
5052;SDS011;2545;50.892;5.740;2023-07-31T09:40:29;11.70;;;4.80;;
5052;SDS011;2545;50.892;5.740;2023-07-31T09:43:02;7.77;;;4.27;;
5052;SDS011;2545;50.892;5.740;2023-07-31T09:45:29;9.30;;;4.50;;
5052;SDS011;2545;50.892;5.740;2023-07-31T09:47:59;9.23;;;4.57;;
5052;SDS011;2545;50.892;5.740;2023-07-31T09:50:25;8.90;;;4.03;;
5052;SDS011;2545;50.892;5.740;2023-07-31T09:52:51;7.73;;;3.87;;
5052;SDS011;2545;50.892;5.740;2023-07-31T09:55:17;7.57;;;4.37;;
5052;SDS011;2545;50.892;5.740;2023-07-31T09:57:47;8.17;;;4.30;;
5052;SDS011;2545;50.892;5.740;2023-07-31T10:00:14;5.53;;;3.63;;
5052;SDS011;2545;50.892;5.740;2023-07-31T10:02:42;8.77;;;3.87;;
5052;SDS011;2545;50.892;5.740;2023-07-31T10:05:10;8.43;;;3.53;;
5052;SDS011;2545;50.892;5.740;2023-07-31T10:07:38;3.97;;;2.60;;
5052;SDS011;2545;50.892;5.740;2023-07-31T10:10:07;5.00;;;2.50;;
5052;SDS011;2545;50.892;5.740;2023-07-31T10:12:34;7.50;;;3.60;;
5052;SDS011;2545;50.892;5.740;2023-07-31T10:15:01;5.90;;;3.13;;
5052;SDS011;2545;50.892;5.740;2023-07-31T10:17:27;3.17;;;2.80;;
5052;SDS011;2545;50.892;5.740;2023-07-31T10:19:54;9.60;;;2.73;;
5052;SDS011;2545;50.892;5.740;2023-07-31T10:22:23;4.10;;;3.07;;
5052;SDS011;2545;50.892;5.740;2023-07-31T10:24:50;10.17;;;3.20;;
5052;SDS011;2545;50.892;5.740;2023-07-31T10:27:19;6.80;;;2.77;;
5052;SDS011;2545;50.892;5.740;2023-07-31T10:29:44;6.67;;;2.70;;
5052;SDS011;2545;50.892;5.740;2023-07-31T10:32:12;5.07;;;2.60;;
5052;SDS011;2545;50.892;5.740;2023-07-31T10:34:40;3.23;;;2.60;;
5052;SDS011;2545;50.892;5.740;2023-07-31T10:42:34;3.40;;;2.33;;
5052;SDS011;2545;50.892;5.740;2023-07-31T10:45:07;2.13;;;1.90;;
5052;SDS011;2545;50.892;5.740;2023-07-31T10:47:38;5.67;;;2.67;;
5052;SDS011;2545;50.892;5.740;2023-07-31T10:50:18;4.90;;;2.33;;
5052;SDS011;2545;50.892;5.740;2023-07-31T10:52:51;4.07;;;2.77;;
5052;SDS011;2545;50.892;5.740;2023-07-31T10:55:25;7.90;;;2.70;;
5052;SDS011;2545;50.892;5.740;2023-07-31T10:57:51;5.63;;;3.00;;
5052;SDS011;2545;50.892;5.740;2023-07-31T11:00:22;12.03;;;3.67;;
5052;SDS011;2545;50.892;5.740;2023-07-31T11:05:45;5.03;;;3.53;;
5052;SDS011;2545;50.892;5.740;2023-07-31T11:11:04;6.53;;;2.93;;
5052;SDS011;2545;50.892;5.740;2023-07-31T11:13:32;4.00;;;2.73;;
5052;SDS011;2545;50.892;5.740;2023-07-31T11:15:59;4.30;;;3.27;;
5052;SDS011;2545;50.892;5.740;2023-07-31T11:18:26;11.87;;;3.60;;
5052;SDS011;2545;50.892;5.740;2023-07-31T11:20:52;18.33;;;3.90;;
5052;SDS011;2545;50.892;5.740;2023-07-31T11:23:19;6.80;;;3.73;;
5052;SDS011;2545;50.892;5.740;2023-07-31T11:25:45;5.90;;;3.83;;
5052;SDS011;2545;50.892;5.740;2023-07-31T11:28:12;8.97;;;3.70;;
5052;SDS011;2545;50.892;5.740;2023-07-31T11:30:38;8.93;;;3.50;;
5052;SDS011;2545;50.892;5.740;2023-07-31T11:33:07;6.60;;;3.40;;
5052;SDS011;2545;50.892;5.740;2023-07-31T11:35:41;7.20;;;4.30;;
5052;SDS011;2545;50.892;5.740;2023-07-31T11:38:09;6.53;;;4.20;;
5052;SDS011;2545;50.892;5.740;2023-07-31T11:40:42;12.33;;;4.33;;
5052;SDS011;2545;50.892;5.740;2023-07-31T11:43:09;11.27;;;4.00;;
5052;SDS011;2545;50.892;5.740;2023-07-31T11:45:36;9.50;;;4.37;;
5052;SDS011;2545;50.892;5.740;2023-07-31T11:48:02;7.30;;;4.20;;
5052;SDS011;2545;50.892;5.740;2023-07-31T11:50:28;6.53;;;4.33;;
5052;SDS011;2545;50.892;5.740;2023-07-31T11:52:55;7.03;;;4.23;;
5052;SDS011;2545;50.892;5.740;2023-07-31T11:55:24;12.70;;;4.17;;
5052;SDS011;2545;50.892;5.740;2023-07-31T11:57:50;7.43;;;4.53;;
5052;SDS011;2545;50.892;5.740;2023-07-31T12:00:17;9.80;;;4.50;;
5052;SDS011;2545;50.892;5.740;2023-07-31T12:02:43;12.40;;;4.60;;
5052;SDS011;2545;50.892;5.740;2023-07-31T12:05:12;9.83;;;4.73;;
5052;SDS011;2545;50.892;5.740;2023-07-31T12:07:48;10.80;;;4.67;;
5052;SDS011;2545;50.892;5.740;2023-07-31T12:13:04;6.07;;;4.60;;
5052;SDS011;2545;50.892;5.740;2023-07-31T12:15:35;6.67;;;4.17;;
5052;SDS011;2545;50.892;5.740;2023-07-31T12:18:05;7.53;;;4.13;;
5052;SDS011;2545;50.892;5.740;2023-07-31T12:20:33;7.17;;;3.53;;
5052;SDS011;2545;50.892;5.740;2023-07-31T12:22:59;10.13;;;5.10;;
5052;SDS011;2545;50.892;5.740;2023-07-31T12:25:32;7.07;;;4.57;;
5052;SDS011;2545;50.892;5.740;2023-07-31T12:28:03;5.80;;;4.13;;
5052;SDS011;2545;50.892;5.740;2023-07-31T12:30:31;9.77;;;3.73;;
5052;SDS011;2545;50.892;5.740;2023-07-31T12:33:02;9.50;;;5.10;;
5052;SDS011;2545;50.892;5.740;2023-07-31T12:35:38;10.63;;;4.90;;
5052;SDS011;2545;50.892;5.740;2023-07-31T12:38:06;9.33;;;3.80;;
5052;SDS011;2545;50.892;5.740;2023-07-31T12:40:32;8.23;;;4.27;;
5052;SDS011;2545;50.892;5.740;2023-07-31T12:42:57;9.70;;;4.10;;
5052;SDS011;2545;50.892;5.740;2023-07-31T12:45:25;7.10;;;3.50;;
5052;SDS011;2545;50.892;5.740;2023-07-31T12:47:51;8.30;;;3.97;;
5052;SDS011;2545;50.892;5.740;2023-07-31T12:50:17;7.43;;;3.83;;
5052;SDS011;2545;50.892;5.740;2023-07-31T12:52:42;5.70;;;4.00;;
5052;SDS011;2545;50.892;5.740;2023-07-31T12:55:08;7.43;;;4.00;;
5052;SDS011;2545;50.892;5.740;2023-07-31T12:57:33;6.30;;;3.80;;
5052;SDS011;2545;50.892;5.740;2023-07-31T12:59:59;5.63;;;3.47;;
5052;SDS011;2545;50.892;5.740;2023-07-31T13:02:24;8.23;;;3.90;;
5052;SDS011;2545;50.892;5.740;2023-07-31T13:04:49;5.93;;;3.03;;
5052;SDS011;2545;50.892;5.740;2023-07-31T13:07:15;8.03;;;4.40;;
5052;SDS011;2545;50.892;5.740;2023-07-31T13:09:40;5.60;;;3.70;;
5052;SDS011;2545;50.892;5.740;2023-07-31T13:12:06;7.23;;;3.80;;
5052;SDS011;2545;50.892;5.740;2023-07-31T13:14:32;8.20;;;3.10;;
5052;SDS011;2545;50.892;5.740;2023-07-31T13:16:58;5.40;;;3.30;;
5052;SDS011;2545;50.892;5.740;2023-07-31T13:19:23;7.30;;;3.60;;
5052;SDS011;2545;50.892;5.740;2023-07-31T13:21:49;8.83;;;4.20;;
5052;SDS011;2545;50.892;5.740;2023-07-31T13:24:14;6.10;;;3.60;;
5052;SDS011;2545;50.892;5.740;2023-07-31T13:26:39;10.83;;;3.60;;
5052;SDS011;2545;50.892;5.740;2023-07-31T13:29:05;5.73;;;3.90;;
5052;SDS011;2545;50.892;5.740;2023-07-31T13:31:30;6.17;;;3.70;;
5052;SDS011;2545;50.892;5.740;2023-07-31T13:33:55;14.10;;;4.57;;
5052;SDS011;2545;50.892;5.740;2023-07-31T13:36:21;7.83;;;4.17;;
5052;SDS011;2545;50.892;5.740;2023-07-31T13:38:46;9.03;;;4.40;;
5052;SDS011;2545;50.892;5.740;2023-07-31T13:41:11;6.23;;;4.77;;
5052;SDS011;2545;50.892;5.740;2023-07-31T13:43:37;7.60;;;4.30;;
5052;SDS011;2545;50.892;5.740;2023-07-31T13:46:02;5.53;;;4.20;;
5052;SDS011;2545;50.892;5.740;2023-07-31T13:48:31;8.63;;;4.33;;
5052;SDS011;2545;50.892;5.740;2023-07-31T13:50:59;9.77;;;5.13;;
5052;SDS011;2545;50.892;5.740;2023-07-31T13:53:25;11.10;;;4.77;;
5052;SDS011;2545;50.892;5.740;2023-07-31T13:55:50;9.00;;;4.63;;
5052;SDS011;2545;50.892;5.740;2023-07-31T13:58:16;11.93;;;4.30;;
5052;SDS011;2545;50.892;5.740;2023-07-31T14:00:42;10.70;;;4.20;;
5052;SDS011;2545;50.892;5.740;2023-07-31T14:03:07;8.60;;;4.30;;
5052;SDS011;2545;50.892;5.740;2023-07-31T14:05:32;11.30;;;4.00;;
5052;SDS011;2545;50.892;5.740;2023-07-31T14:07:58;8.10;;;4.27;;
5052;SDS011;2545;50.892;5.740;2023-07-31T14:10:23;10.93;;;4.43;;
5052;SDS011;2545;50.892;5.740;2023-07-31T14:12:48;10.93;;;4.33;;
5052;SDS011;2545;50.892;5.740;2023-07-31T14:15:14;10.43;;;4.33;;
5052;SDS011;2545;50.892;5.740;2023-07-31T14:17:39;9.13;;;4.70;;
5052;SDS011;2545;50.892;5.740;2023-07-31T14:20:04;7.30;;;4.70;;
5052;SDS011;2545;50.892;5.740;2023-07-31T14:22:30;7.07;;;4.00;;
5052;SDS011;2545;50.892;5.740;2023-07-31T14:24:58;7.90;;;4.53;;
5052;SDS011;2545;50.892;5.740;2023-07-31T14:27:23;31.43;;;4.90;;
5052;SDS011;2545;50.892;5.740;2023-07-31T14:29:48;9.07;;;4.40;;
5052;SDS011;2545;50.892;5.740;2023-07-31T14:32:14;7.13;;;4.13;;
5052;SDS011;2545;50.892;5.740;2023-07-31T14:34:39;8.73;;;4.80;;
5052;SDS011;2545;50.892;5.740;2023-07-31T14:37:04;7.20;;;4.37;;
5052;SDS011;2545;50.892;5.740;2023-07-31T14:39:30;7.07;;;3.57;;
5052;SDS011;2545;50.892;5.740;2023-07-31T14:41:55;15.30;;;4.53;;
5052;SDS011;2545;50.892;5.740;2023-07-31T14:44:20;14.83;;;3.97;;
5052;SDS011;2545;50.892;5.740;2023-07-31T14:46:46;7.50;;;4.03;;
5052;SDS011;2545;50.892;5.740;2023-07-31T14:49:11;17.50;;;5.80;;
5052;SDS011;2545;50.892;5.740;2023-07-31T14:51:36;5.90;;;4.50;;
5052;SDS011;2545;50.892;5.740;2023-07-31T14:54:02;6.90;;;4.00;;
5052;SDS011;2545;50.892;5.740;2023-07-31T14:56:27;6.63;;;4.43;;
5052;SDS011;2545;50.892;5.740;2023-07-31T14:58:53;12.50;;;5.03;;
5052;SDS011;2545;50.892;5.740;2023-07-31T15:01:18;12.23;;;4.87;;
5052;SDS011;2545;50.892;5.740;2023-07-31T15:03:43;11.37;;;4.47;;
5052;SDS011;2545;50.892;5.740;2023-07-31T15:06:09;9.13;;;5.83;;
5052;SDS011;2545;50.892;5.740;2023-07-31T15:08:34;13.70;;;5.60;;
5052;SDS011;2545;50.892;5.740;2023-07-31T15:11:01;6.40;;;4.53;;
5052;SDS011;2545;50.892;5.740;2023-07-31T15:13:27;10.37;;;5.53;;
5052;SDS011;2545;50.892;5.740;2023-07-31T15:15:52;9.73;;;5.97;;
5052;SDS011;2545;50.892;5.740;2023-07-31T15:18:17;13.00;;;5.60;;
5052;SDS011;2545;50.892;5.740;2023-07-31T15:20:43;9.87;;;4.77;;
5052;SDS011;2545;50.892;5.740;2023-07-31T15:23:08;7.70;;;4.47;;
5052;SDS011;2545;50.892;5.740;2023-07-31T15:25:33;7.30;;;4.07;;